Time;durP1;ratioP1;P1;durP2;ratioP2;P2;SDS_P1;SDS_P2;PMS_P1;PMS_P2;Temp;Humidity;BMP_temperature;BMP_pressure;BME280_temperature;BME280_humidity;BME280_pressure;Samples;Min_cycle;Max_cycle;Signal;HPM_P1;HPM_P2
2023/01/04 00:00:40;;;;;;;;;70.00;56.67;;;;;;;;5031452;28;8789;-68
2023/01/04 00:03:05;;;;;;;;;68.67;56.67;;;;;;;;5031386;28;8841;-68
2023/01/04 00:05:31;;;;;;;;;69.33;56.33;;;;;;;;5031445;28;8802;-68
2023/01/04 00:07:57;;;;;;;;;66.00;53.00;;;;;;;;5031043;28;8852;-68
2023/01/04 00:10:22;;;;;;;;;68.00;55.00;;;;;;;;5031384;28;8786;-68
2023/01/04 00:12:47;;;;;;;;;71.00;55.00;;;;;;;;5031297;28;8944;-68
2023/01/04 00:15:13;;;;;;;;;74.33;56.67;;;;;;;;5031114;28;8806;-68
2023/01/04 00:17:38;;;;;;;;;70.33;55.67;;;;;;;;5026025;23;9000;-75
2023/01/04 00:20:03;;;;;;;;;71.00;56.00;;;;;;;;4990594;28;8830;-75
2023/01/04 00:22:31;;;;;;;;;67.00;52.00;;;;;;;;4991665;28;9701;-76
2023/01/04 00:24:57;;;;;;;;;71.00;54.00;;;;;;;;4991540;28;8972;-76
2023/01/04 00:27:23;;;;;;;;;72.00;59.33;;;;;;;;4991996;28;9567;-76
2023/01/04 00:29:48;;;;;;;;;68.67;57.00;;;;;;;;4991677;28;8795;-76
2023/01/04 00:32:13;;;;;;;;;78.33;60.33;;;;;;;;4991568;28;9628;-75
2023/01/04 00:34:38;;;;;;;;;72.67;58.33;;;;;;;;4991589;28;8802;-75
2023/01/04 00:37:04;;;;;;;;;68.00;57.33;;;;;;;;4991600;28;8826;-76
2023/01/04 00:39:29;;;;;;;;;74.00;56.00;;;;;;;;4991402;28;8857;-76
2023/01/04 00:42:03;;;;;;;;;71.33;55.33;;;;;;;;4990847;28;9635;-75
2023/01/04 00:44:29;;;;;;;;;72.33;58.00;;;;;;;;4991546;28;8822;-75
2023/01/04 00:46:54;;;;;;;;;79.33;62.33;;;;;;;;4991629;28;8799;-76
2023/01/04 00:49:20;;;;;;;;;78.00;59.33;;;;;;;;4989917;28;8818;-76
2023/01/04 00:51:45;;;;;;;;;72.67;60.00;;;;;;;;4991452;28;8775;-75
2023/01/04 00:54:12;;;;;;;;;78.33;60.00;;;;;;;;4991110;28;8787;-76
2023/01/04 00:56:37;;;;;;;;;72.00;56.33;;;;;;;;4990828;28;8822;-76
2023/01/04 00:59:04;;;;;;;;;73.33;55.67;;;;;;;;4991027;28;9072;-76
2023/01/04 01:01:30;;;;;;;;;71.00;57.67;;;;;;;;4990660;28;9054;-76
2023/01/04 01:03:57;;;;;;;;;71.67;57.00;;;;;;;;4990927;28;8807;-76
2023/01/04 01:06:23;;;;;;;;;70.67;57.00;;;;;;;;4991172;28;8779;-76
2023/01/04 01:08:49;;;;;;;;;52.00;45.00;;;;;;;;4990957;28;8806;-76
2023/01/04 01:11:14;;;;;;;;;64.00;53.00;;;;;;;;4990757;28;8787;-76
2023/01/04 01:13:39;;;;;;;;;65.67;53.67;;;;;;;;4990754;28;8801;-76
2023/01/04 01:16:05;;;;;;;;;64.67;51.67;;;;;;;;4989358;28;8961;-75
2023/01/04 01:18:31;;;;;;;;;66.00;53.00;;;;;;;;4990608;28;8881;-75
2023/01/04 01:20:56;;;;;;;;;65.33;50.33;;;;;;;;4990611;28;8810;-75
2023/01/04 01:23:21;;;;;;;;;61.67;49.00;;;;;;;;4990590;28;8794;-75
2023/01/04 01:25:46;;;;;;;;;64.00;50.33;;;;;;;;4989730;28;8819;-75
2023/01/04 01:28:12;;;;;;;;;63.00;52.67;;;;;;;;4990473;28;8799;-74
2023/01/04 01:30:40;;;;;;;;;64.00;49.67;;;;;;;;4989076;28;8950;-76
2023/01/04 01:33:06;;;;;;;;;63.33;49.67;;;;;;;;4990477;28;8886;-75
2023/01/04 01:35:32;;;;;;;;;63.00;52.67;;;;;;;;4989978;28;8960;-75
2023/01/04 01:37:57;;;;;;;;;62.33;51.33;;;;;;;;4990385;28;8909;-76
2023/01/04 01:40:22;;;;;;;;;63.33;50.00;;;;;;;;4989120;28;9556;-76
2023/01/04 01:42:48;;;;;;;;;63.67;54.00;;;;;;;;4990337;28;8826;-76
2023/01/04 01:45:32;;;;;;;;;60.33;49.33;;;;;;;;4990362;28;8782;-76
2023/01/04 01:48:01;;;;;;;;;65.33;53.67;;;;;;;;4990618;28;8890;-77
2023/01/04 01:50:38;;;;;;;;;63.67;50.00;;;;;;;;4990384;28;8787;-77
2023/01/04 01:53:05;;;;;;;;;68.33;55.00;;;;;;;;4990094;28;8846;-76
2023/01/04 01:55:32;;;;;;;;;65.33;53.33;;;;;;;;4990077;28;8911;-77
2023/01/04 01:57:58;;;;;;;;;53.00;46.67;;;;;;;;4989890;28;8795;-76
2023/01/04 02:00:24;;;;;;;;;52.67;46.00;;;;;;;;4990128;28;8893;-75
2023/01/04 02:02:49;;;;;;;;;61.00;48.67;;;;;;;;4989855;28;11762;-76
2023/01/04 02:05:16;;;;;;;;;58.33;48.33;;;;;;;;4990092;28;8787;-76
2023/01/04 02:07:42;;;;;;;;;48.67;45.00;;;;;;;;4988669;28;8814;-76
2023/01/04 02:10:07;;;;;;;;;56.33;46.33;;;;;;;;4989535;28;11578;-76
2023/01/04 02:12:33;;;;;;;;;59.33;49.67;;;;;;;;4990013;28;8817;-75
2023/01/04 02:14:58;;;;;;;;;55.33;48.33;;;;;;;;4990231;28;8791;-75
2023/01/04 02:17:42;;;;;;;;;65.67;51.00;;;;;;;;5004053;23;8894;-68
2023/01/04 02:20:26;;;;;;;;;60.67;50.00;;;;;;;;4990009;28;8794;-68
2023/01/04 02:23:00;;;;;;;;;59.67;48.67;;;;;;;;4991521;28;8933;-71
2023/01/04 02:25:31;;;;;;;;;53.33;46.00;;;;;;;;4991699;28;8878;-69
2023/01/04 02:28:02;;;;;;;;;62.33;51.00;;;;;;;;4990030;28;11541;-69
2023/01/04 02:30:42;;;;;;;;;54.00;45.00;;;;;;;;4989578;28;8822;-68
2023/01/04 02:33:26;;;;;;;;;67.33;53.00;;;;;;;;4988337;28;8840;-69
2023/01/04 02:36:10;;;;;;;;;56.33;49.00;;;;;;;;4989934;28;8917;-69
2023/01/04 02:38:51;;;;;;;;;62.67;52.67;;;;;;;;4992813;28;8831;-69
2023/01/04 02:41:19;;;;;;;;;62.00;51.00;;;;;;;;4993570;28;8813;-69
2023/01/04 02:46:58;;;;;;;;;64.00;51.67;;;;;;;;4990581;28;8826;-68
2023/01/04 02:52:07;;;;;;;;;57.67;47.33;;;;;;;;4993410;28;8783;-69
2023/01/04 02:54:33;;;;;;;;;66.33;49.67;;;;;;;;4993155;28;8794;-68
2023/01/04 02:56:58;;;;;;;;;63.00;51.33;;;;;;;;4993291;28;8835;-68
2023/01/04 02:59:29;;;;;;;;;61.00;50.00;;;;;;;;4993251;28;8905;-68
2023/01/04 03:07:40;;;;;;;;;64.67;50.33;;;;;;;;4992918;28;8811;-68
2023/01/04 03:10:24;;;;;;;;;63.67;49.00;;;;;;;;4993177;28;8783;-69
2023/01/04 03:12:53;;;;;;;;;63.00;50.00;;;;;;;;4993555;28;8791;-68
2023/01/04 03:15:21;;;;;;;;;58.67;51.00;;;;;;;;4993312;28;8877;-68
2023/01/04 03:17:57;;;;;;;;;68.00;54.33;;;;;;;;4997629;28;8807;-68
2023/01/04 03:20:24;;;;;;;;;66.67;54.00;;;;;;;;4998415;28;8811;-69
2023/01/04 03:36:53;;;;;;;;;59.00;50.00;;;;;;;;4992753;28;8957;-69
2023/01/04 03:50:56;;;;;;;;;64.33;47.33;;;;;;;;4992582;28;8810;-69
2023/01/04 03:53:21;;;;;;;;;67.33;51.67;;;;;;;;4992315;28;8854;-69
2023/01/04 03:55:48;;;;;;;;;64.00;50.67;;;;;;;;4992168;28;8838;-69
2023/01/04 03:58:13;;;;;;;;;62.33;50.33;;;;;;;;4991967;28;8917;-69
2023/01/04 04:00:39;;;;;;;;;57.67;48.00;;;;;;;;4992204;28;8807;-69
2023/01/04 04:03:08;;;;;;;;;59.00;45.33;;;;;;;;4992162;28;9567;-69
2023/01/04 04:08:23;;;;;;;;;62.33;48.67;;;;;;;;4992160;28;8787;-69
2023/01/04 04:10:49;;;;;;;;;54.67;45.67;;;;;;;;4992043;28;8791;-69
2023/01/04 04:13:14;;;;;;;;;58.33;43.33;;;;;;;;4992058;28;8806;-69
2023/01/04 04:15:39;;;;;;;;;59.67;44.00;;;;;;;;4988373;28;9577;-69
2023/01/04 04:18:04;;;;;;;;;50.00;42.33;;;;;;;;4992112;28;8827;-69
2023/01/04 04:20:30;;;;;;;;;50.00;43.67;;;;;;;;4991019;28;8862;-68
2023/01/04 04:22:55;;;;;;;;;53.00;43.33;;;;;;;;4991854;28;8815;-68
2023/01/04 04:25:20;;;;;;;;;49.33;38.33;;;;;;;;4991707;28;8823;-69
2023/01/04 04:27:46;;;;;;;;;50.00;44.00;;;;;;;;4991697;28;8810;-68
2023/01/04 04:30:11;;;;;;;;;49.67;43.00;;;;;;;;4991487;28;8881;-69
2023/01/04 04:32:36;;;;;;;;;56.33;46.00;;;;;;;;4991527;28;8814;-70
2023/01/04 04:35:02;;;;;;;;;49.00;42.00;;;;;;;;4993279;28;8790;-68
2023/01/04 04:37:29;;;;;;;;;52.33;45.00;;;;;;;;5011152;28;8944;-68
2023/01/04 04:39:55;;;;;;;;;49.67;42.67;;;;;;;;5010564;28;8827;-68
2023/01/04 04:42:20;;;;;;;;;53.00;41.67;;;;;;;;5010953;28;8820;-68
2023/01/04 04:44:45;;;;;;;;;54.00;43.33;;;;;;;;5003017;28;8795;-68
2023/01/04 04:47:10;;;;;;;;;49.00;40.33;;;;;;;;4991181;28;9561;-68
2023/01/04 04:49:35;;;;;;;;;48.33;40.67;;;;;;;;4991175;28;8805;-67
2023/01/04 04:52:01;;;;;;;;;55.33;44.33;;;;;;;;4991302;28;8819;-68
2023/01/04 04:54:26;;;;;;;;;45.67;41.00;;;;;;;;4991171;28;9576;-68
2023/01/04 04:56:51;;;;;;;;;54.33;43.33;;;;;;;;4990594;28;8877;-68
2023/01/04 04:59:16;;;;;;;;;52.00;44.33;;;;;;;;4990454;28;8965;-68
2023/01/04 05:01:42;;;;;;;;;45.67;37.67;;;;;;;;4990437;28;8898;-69
2023/01/04 05:04:07;;;;;;;;;49.33;42.33;;;;;;;;4990963;28;8794;-68
2023/01/04 05:06:32;;;;;;;;;57.00;44.33;;;;;;;;4990859;28;8881;-68
2023/01/04 05:08:58;;;;;;;;;54.67;40.00;;;;;;;;4990814;28;9471;-68
2023/01/04 05:14:07;;;;;;;;;48.33;42.33;;;;;;;;4991085;28;8822;-69
2023/01/04 05:16:32;;;;;;;;;44.67;38.67;;;;;;;;4993755;28;8837;-67
2023/01/04 05:18:57;;;;;;;;;45.67;43.00;;;;;;;;4992058;28;8806;-68
2023/01/04 05:21:23;;;;;;;;;49.33;42.00;;;;;;;;4991152;28;8829;-69
2023/01/04 05:23:48;;;;;;;;;48.33;42.33;;;;;;;;4990810;28;8908;-69
2023/01/04 05:26:13;;;;;;;;;45.67;40.33;;;;;;;;4990606;28;8922;-69
2023/01/04 05:28:38;;;;;;;;;53.00;43.00;;;;;;;;4990589;28;8913;-68
2023/01/04 05:31:04;;;;;;;;;45.33;41.00;;;;;;;;4989972;28;8787;-68
2023/01/04 05:33:30;;;;;;;;;48.67;40.67;;;;;;;;4990555;28;8795;-67
2023/01/04 05:35:56;;;;;;;;;54.67;42.00;;;;;;;;4990565;28;8842;-69
2023/01/04 05:38:22;;;;;;;;;52.33;43.00;;;;;;;;4990570;28;8803;-70
2023/01/04 05:40:47;;;;;;;;;44.33;40.00;;;;;;;;4990242;28;8845;-69
2023/01/04 05:43:13;;;;;;;;;52.33;43.67;;;;;;;;4990499;28;8779;-68
2023/01/04 05:45:39;;;;;;;;;45.00;42.33;;;;;;;;4990435;28;8928;-69
2023/01/04 05:48:05;;;;;;;;;58.00;45.00;;;;;;;;4990164;28;9510;-67
2023/01/04 05:50:30;;;;;;;;;59.33;44.00;;;;;;;;4990221;28;8928;-68
2023/01/04 05:52:55;;;;;;;;;53.67;47.00;;;;;;;;4990168;28;8799;-69
2023/01/04 05:55:21;;;;;;;;;49.00;42.33;;;;;;;;4989898;28;8813;-68
2023/01/04 05:57:46;;;;;;;;;57.33;45.00;;;;;;;;4990153;28;9770;-68
2023/01/04 06:00:12;;;;;;;;;49.33;43.33;;;;;;;;4989971;28;8810;-68
2023/01/04 06:02:37;;;;;;;;;54.33;44.00;;;;;;;;4990049;28;8799;-68
2023/01/04 06:05:04;;;;;;;;;56.67;43.67;;;;;;;;4989805;28;8922;-68
2023/01/04 06:07:29;;;;;;;;;54.00;45.67;;;;;;;;4990038;28;8818;-68
2023/01/04 06:09:54;;;;;;;;;52.33;42.33;;;;;;;;4990003;28;8830;-68
2023/01/04 06:12:20;;;;;;;;;48.67;44.00;;;;;;;;4989785;28;8835;-67
2023/01/04 06:14:45;;;;;;;;;51.33;44.67;;;;;;;;4990228;28;8891;-69
2023/01/04 06:17:10;;;;;;;;;60.00;47.33;;;;;;;;4990840;28;8866;-68
2023/01/04 06:19:36;;;;;;;;;61.33;46.00;;;;;;;;4990032;28;8930;-68
2023/01/04 06:22:01;;;;;;;;;59.67;48.00;;;;;;;;4989530;28;9659;-68
2023/01/04 06:24:26;;;;;;;;;37.33;35.33;;;;;;;;4989928;28;8799;-68
2023/01/04 06:26:51;;;;;;;;;47.00;41.00;;;;;;;;4989990;28;8814;-68
2023/01/04 06:29:17;;;;;;;;;59.67;46.33;;;;;;;;4989697;28;8912;-68
2023/01/04 06:31:42;;;;;;;;;63.00;45.67;;;;;;;;4989921;28;8826;-68
2023/01/04 06:34:10;;;;;;;;;56.67;43.67;;;;;;;;4989770;28;8811;-68
